sensor_id;sensor_type;location;lat;lon;timestamp;P1;durP1;ratioP1;P2;durP2;ratioP2
70233;SDS011;75981;42.636;23.376;2024-02-16T00:01:34;16.77;;;9.27;;
70233;SDS011;75981;42.636;23.376;2024-02-16T00:04:01;17.63;;;9.00;;
70233;SDS011;75981;42.636;23.376;2024-02-16T00:06:26;17.02;;;8.90;;
70233;SDS011;75981;42.636;23.376;2024-02-16T00:08:52;15.77;;;8.35;;
70233;SDS011;75981;42.636;23.376;2024-02-16T00:11:17;17.52;;;9.02;;
70233;SDS011;75981;42.636;23.376;2024-02-16T00:13:43;16.85;;;8.93;;
70233;SDS011;75981;42.636;23.376;2024-02-16T00:16:08;17.40;;;8.35;;
70233;SDS011;75981;42.636;23.376;2024-02-16T00:18:34;17.73;;;9.05;;
70233;SDS011;75981;42.636;23.376;2024-02-16T00:20:59;16.10;;;8.18;;
70233;SDS011;75981;42.636;23.376;2024-02-16T00:23:26;17.10;;;8.98;;
70233;SDS011;75981;42.636;23.376;2024-02-16T00:25:52;18.20;;;9.27;;
70233;SDS011;75981;42.636;23.376;2024-02-16T00:28:17;17.35;;;8.93;;
70233;SDS011;75981;42.636;23.376;2024-02-16T00:30:43;18.08;;;9.15;;
70233;SDS011;75981;42.636;23.376;2024-02-16T00:33:09;19.75;;;9.50;;
70233;SDS011;75981;42.636;23.376;2024-02-16T00:35:34;18.02;;;9.18;;
70233;SDS011;75981;42.636;23.376;2024-02-16T00:38:00;17.65;;;8.85;;
70233;SDS011;75981;42.636;23.376;2024-02-16T00:40:25;17.70;;;9.43;;
70233;SDS011;75981;42.636;23.376;2024-02-16T00:42:54;20.60;;;9.43;;
70233;SDS011;75981;42.636;23.376;2024-02-16T00:45:20;17.70;;;9.35;;
70233;SDS011;75981;42.636;23.376;2024-02-16T00:47:45;17.33;;;9.02;;
70233;SDS011;75981;42.636;23.376;2024-02-16T00:50:11;16.27;;;9.13;;
70233;SDS011;75981;42.636;23.376;2024-02-16T00:52:37;17.33;;;8.77;;
70233;SDS011;75981;42.636;23.376;2024-02-16T00:55:04;18.20;;;9.48;;
70233;SDS011;75981;42.636;23.376;2024-02-16T00:57:30;21.60;;;9.63;;
70233;SDS011;75981;42.636;23.376;2024-02-16T00:59:55;17.75;;;9.32;;
70233;SDS011;75981;42.636;23.376;2024-02-16T01:02:21;15.98;;;9.13;;
70233;SDS011;75981;42.636;23.376;2024-02-16T01:04:47;19.30;;;9.10;;
70233;SDS011;75981;42.636;23.376;2024-02-16T01:07:15;17.05;;;8.85;;
70233;SDS011;75981;42.636;23.376;2024-02-16T01:09:40;17.83;;;9.35;;
70233;SDS011;75981;42.636;23.376;2024-02-16T01:12:06;18.40;;;9.32;;
70233;SDS011;75981;42.636;23.376;2024-02-16T01:14:32;15.95;;;9.07;;
70233;SDS011;75981;42.636;23.376;2024-02-16T01:16:57;17.52;;;8.95;;
70233;SDS011;75981;42.636;23.376;2024-02-16T01:19:23;15.43;;;8.60;;
70233;SDS011;75981;42.636;23.376;2024-02-16T01:21:48;17.05;;;8.38;;
70233;SDS011;75981;42.636;23.376;2024-02-16T01:24:18;18.23;;;8.68;;
70233;SDS011;75981;42.636;23.376;2024-02-16T01:26:43;17.73;;;8.50;;
70233;SDS011;75981;42.636;23.376;2024-02-16T01:29:09;15.45;;;8.90;;
70233;SDS011;75981;42.636;23.376;2024-02-16T01:31:34;16.38;;;9.10;;
70233;SDS011;75981;42.636;23.376;2024-02-16T01:34:01;19.60;;;9.63;;
70233;SDS011;75981;42.636;23.376;2024-02-16T01:36:27;18.65;;;8.70;;
70233;SDS011;75981;42.636;23.376;2024-02-16T01:38:52;16.77;;;8.90;;
70233;SDS011;75981;42.636;23.376;2024-02-16T01:41:18;18.15;;;9.07;;
70233;SDS011;75981;42.636;23.376;2024-02-16T01:43:43;16.50;;;9.43;;
70233;SDS011;75981;42.636;23.376;2024-02-16T01:46:09;14.35;;;8.18;;
70233;SDS011;75981;42.636;23.376;2024-02-16T01:48:34;16.92;;;8.75;;
70233;SDS011;75981;42.636;23.376;2024-02-16T01:51:00;15.98;;;8.43;;
70233;SDS011;75981;42.636;23.376;2024-02-16T01:53:27;17.92;;;9.38;;
70233;SDS011;75981;42.636;23.376;2024-02-16T01:55:53;15.77;;;8.38;;
70233;SDS011;75981;42.636;23.376;2024-02-16T01:58:19;16.58;;;8.75;;
70233;SDS011;75981;42.636;23.376;2024-02-16T02:00:44;17.92;;;8.32;;
70233;SDS011;75981;42.636;23.376;2024-02-16T02:03:10;20.45;;;8.85;;
70233;SDS011;75981;42.636;23.376;2024-02-16T02:05:43;21.48;;;10.20;;
70233;SDS011;75981;42.636;23.376;2024-02-16T02:08:12;23.10;;;12.68;;
70233;SDS011;75981;42.636;23.376;2024-02-16T02:10:38;17.98;;;9.48;;
70233;SDS011;75981;42.636;23.376;2024-02-16T02:13:03;15.40;;;7.70;;
70233;SDS011;75981;42.636;23.376;2024-02-16T02:15:29;12.50;;;7.35;;
70233;SDS011;75981;42.636;23.376;2024-02-16T02:17:54;13.82;;;6.45;;
70233;SDS011;75981;42.636;23.376;2024-02-16T02:20:20;14.27;;;6.72;;
70233;SDS011;75981;42.636;23.376;2024-02-16T02:22:45;14.98;;;6.22;;
70233;SDS011;75981;42.636;23.376;2024-02-16T02:25:11;11.95;;;5.85;;
70233;SDS011;75981;42.636;23.376;2024-02-16T02:27:37;12.82;;;6.35;;
70233;SDS011;75981;42.636;23.376;2024-02-16T02:30:02;12.15;;;6.07;;
70233;SDS011;75981;42.636;23.376;2024-02-16T02:32:28;14.15;;;6.35;;
70233;SDS011;75981;42.636;23.376;2024-02-16T02:34:54;12.07;;;6.72;;
70233;SDS011;75981;42.636;23.376;2024-02-16T02:37:20;15.02;;;7.20;;
70233;SDS011;75981;42.636;23.376;2024-02-16T02:39:45;14.98;;;6.93;;
70233;SDS011;75981;42.636;23.376;2024-02-16T02:42:10;14.23;;;6.45;;
70233;SDS011;75981;42.636;23.376;2024-02-16T02:44:36;14.68;;;6.85;;
70233;SDS011;75981;42.636;23.376;2024-02-16T02:47:01;14.98;;;7.13;;
70233;SDS011;75981;42.636;23.376;2024-02-16T02:49:27;14.00;;;6.70;;
70233;SDS011;75981;42.636;23.376;2024-02-16T02:51:52;12.60;;;6.20;;
70233;SDS011;75981;42.636;23.376;2024-02-16T02:54:18;12.77;;;6.72;;
70233;SDS011;75981;42.636;23.376;2024-02-16T02:56:43;16.60;;;8.10;;
70233;SDS011;75981;42.636;23.376;2024-02-16T02:59:09;12.70;;;6.90;;
70233;SDS011;75981;42.636;23.376;2024-02-16T03:01:35;11.95;;;5.90;;
70233;SDS011;75981;42.636;23.376;2024-02-16T03:04:01;11.15;;;5.78;;
70233;SDS011;75981;42.636;23.376;2024-02-16T03:06:27;13.95;;;6.00;;
70233;SDS011;75981;42.636;23.376;2024-02-16T03:08:53;13.30;;;5.85;;
70233;SDS011;75981;42.636;23.376;2024-02-16T03:11:18;11.32;;;6.55;;
70233;SDS011;75981;42.636;23.376;2024-02-16T03:13:44;12.32;;;5.97;;
70233;SDS011;75981;42.636;23.376;2024-02-16T03:16:09;11.98;;;5.75;;
70233;SDS011;75981;42.636;23.376;2024-02-16T03:18:34;13.82;;;5.85;;
70233;SDS011;75981;42.636;23.376;2024-02-16T03:21:01;15.75;;;6.22;;
70233;SDS011;75981;42.636;23.376;2024-02-16T03:23:27;12.30;;;5.60;;
70233;SDS011;75981;42.636;23.376;2024-02-16T03:25:52;13.30;;;5.60;;
70233;SDS011;75981;42.636;23.376;2024-02-16T03:28:18;13.38;;;6.32;;
70233;SDS011;75981;42.636;23.376;2024-02-16T03:30:43;11.63;;;5.68;;
70233;SDS011;75981;42.636;23.376;2024-02-16T03:33:09;10.50;;;5.35;;
70233;SDS011;75981;42.636;23.376;2024-02-16T03:35:35;11.13;;;5.78;;
70233;SDS011;75981;42.636;23.376;2024-02-16T03:38:04;13.32;;;6.13;;
70233;SDS011;75981;42.636;23.376;2024-02-16T03:40:30;11.40;;;5.68;;
70233;SDS011;75981;42.636;23.376;2024-02-16T03:42:56;13.98;;;5.60;;
70233;SDS011;75981;42.636;23.376;2024-02-16T03:45:22;11.25;;;5.28;;
70233;SDS011;75981;42.636;23.376;2024-02-16T03:47:48;11.23;;;5.40;;
70233;SDS011;75981;42.636;23.376;2024-02-16T03:50:14;11.70;;;4.85;;
70233;SDS011;75981;42.636;23.376;2024-02-16T03:52:40;13.32;;;5.03;;
70233;SDS011;75981;42.636;23.376;2024-02-16T03:55:05;11.75;;;4.82;;
70233;SDS011;75981;42.636;23.376;2024-02-16T03:57:31;11.02;;;5.35;;
70233;SDS011;75981;42.636;23.376;2024-02-16T03:59:57;14.00;;;5.28;;
70233;SDS011;75981;42.636;23.376;2024-02-16T04:02:22;10.57;;;5.35;;
70233;SDS011;75981;42.636;23.376;2024-02-16T04:04:47;12.88;;;5.50;;
70233;SDS011;75981;42.636;23.376;2024-02-16T04:07:13;11.30;;;5.10;;
70233;SDS011;75981;42.636;23.376;2024-02-16T04:09:39;12.38;;;5.30;;
70233;SDS011;75981;42.636;23.376;2024-02-16T04:12:05;13.60;;;5.68;;
70233;SDS011;75981;42.636;23.376;2024-02-16T04:14:31;11.90;;;5.15;;
70233;SDS011;75981;42.636;23.376;2024-02-16T04:16:57;11.90;;;5.78;;
70233;SDS011;75981;42.636;23.376;2024-02-16T04:19:26;13.67;;;5.67;;
70233;SDS011;75981;42.636;23.376;2024-02-16T04:21:51;13.50;;;6.35;;
70233;SDS011;75981;42.636;23.376;2024-02-16T04:24:17;11.90;;;5.88;;
70233;SDS011;75981;42.636;23.376;2024-02-16T04:26:43;11.30;;;5.60;;
70233;SDS011;75981;42.636;23.376;2024-02-16T04:29:08;16.90;;;6.93;;
70233;SDS011;75981;42.636;23.376;2024-02-16T04:31:33;12.30;;;5.57;;
70233;SDS011;75981;42.636;23.376;2024-02-16T04:33:59;14.00;;;6.20;;
70233;SDS011;75981;42.636;23.376;2024-02-16T04:36:24;13.75;;;5.82;;
70233;SDS011;75981;42.636;23.376;2024-02-16T04:38:50;14.93;;;5.60;;
70233;SDS011;75981;42.636;23.376;2024-02-16T04:41:16;13.77;;;6.25;;
70233;SDS011;75981;42.636;23.376;2024-02-16T04:43:41;14.90;;;6.25;;
70233;SDS011;75981;42.636;23.376;2024-02-16T04:46:07;12.02;;;6.25;;
70233;SDS011;75981;42.636;23.376;2024-02-16T04:48:32;12.63;;;6.38;;
70233;SDS011;75981;42.636;23.376;2024-02-16T04:50:59;13.90;;;6.50;;
70233;SDS011;75981;42.636;23.376;2024-02-16T04:53:24;18.90;;;6.35;;
70233;SDS011;75981;42.636;23.376;2024-02-16T04:55:50;17.15;;;5.55;;
70233;SDS011;75981;42.636;23.376;2024-02-16T04:58:16;18.63;;;6.47;;
70233;SDS011;75981;42.636;23.376;2024-02-16T05:00:41;21.58;;;6.38;;
70233;SDS011;75981;42.636;23.376;2024-02-16T05:03:07;13.80;;;5.80;;
70233;SDS011;75981;42.636;23.376;2024-02-16T05:05:32;15.57;;;7.28;;
70233;SDS011;75981;42.636;23.376;2024-02-16T05:07:58;13.32;;;7.00;;
70233;SDS011;75981;42.636;23.376;2024-02-16T05:10:23;17.85;;;8.40;;
70233;SDS011;75981;42.636;23.376;2024-02-16T05:12:49;21.52;;;7.28;;
70233;SDS011;75981;42.636;23.376;2024-02-16T05:15:14;16.02;;;6.75;;
70233;SDS011;75981;42.636;23.376;2024-02-16T05:17:40;15.55;;;6.50;;
70233;SDS011;75981;42.636;23.376;2024-02-16T05:20:10;14.70;;;5.95;;
70233;SDS011;75981;42.636;23.376;2024-02-16T05:22:40;13.57;;;5.00;;
70233;SDS011;75981;42.636;23.376;2024-02-16T05:25:08;10.52;;;4.97;;
70233;SDS011;75981;42.636;23.376;2024-02-16T05:27:34;9.55;;;4.55;;
70233;SDS011;75981;42.636;23.376;2024-02-16T05:29:59;12.40;;;5.03;;
70233;SDS011;75981;42.636;23.376;2024-02-16T05:32:25;11.68;;;5.63;;
70233;SDS011;75981;42.636;23.376;2024-02-16T05:34:51;13.80;;;5.55;;
70233;SDS011;75981;42.636;23.376;2024-02-16T05:37:17;14.93;;;5.93;;
70233;SDS011;75981;42.636;23.376;2024-02-16T05:39:43;20.02;;;6.15;;
70233;SDS011;75981;42.636;23.376;2024-02-16T05:42:19;12.38;;;5.85;;
70233;SDS011;75981;42.636;23.376;2024-02-16T05:44:47;17.17;;;6.13;;
70233;SDS011;75981;42.636;23.376;2024-02-16T05:47:16;14.82;;;6.30;;
70233;SDS011;75981;42.636;23.376;2024-02-16T05:49:45;13.70;;;5.90;;
70233;SDS011;75981;42.636;23.376;2024-02-16T05:52:13;19.20;;;7.57;;
70233;SDS011;75981;42.636;23.376;2024-02-16T05:54:46;14.45;;;7.03;;
70233;SDS011;75981;42.636;23.376;2024-02-16T05:57:14;19.35;;;7.95;;
70233;SDS011;75981;42.636;23.376;2024-02-16T05:59:41;16.75;;;7.75;;
70233;SDS011;75981;42.636;23.376;2024-02-16T06:02:06;17.67;;;8.13;;
70233;SDS011;75981;42.636;23.376;2024-02-16T06:04:32;22.88;;;7.78;;
70233;SDS011;75981;42.636;23.376;2024-02-16T06:06:58;16.42;;;8.02;;
70233;SDS011;75981;42.636;23.376;2024-02-16T06:09:24;20.75;;;7.97;;
70233;SDS011;75981;42.636;23.376;2024-02-16T06:11:49;20.23;;;8.57;;
70233;SDS011;75981;42.636;23.376;2024-02-16T06:14:15;17.08;;;9.20;;
70233;SDS011;75981;42.636;23.376;2024-02-16T06:16:40;25.55;;;8.60;;
70233;SDS011;75981;42.636;23.376;2024-02-16T06:19:07;16.00;;;7.55;;
70233;SDS011;75981;42.636;23.376;2024-02-16T06:21:34;22.35;;;10.45;;
70233;SDS011;75981;42.636;23.376;2024-02-16T06:24:00;25.15;;;11.02;;
70233;SDS011;75981;42.636;23.376;2024-02-16T06:26:27;22.65;;;12.55;;
70233;SDS011;75981;42.636;23.376;2024-02-16T06:28:52;21.55;;;10.82;;
70233;SDS011;75981;42.636;23.376;2024-02-16T06:31:18;14.48;;;7.95;;
70233;SDS011;75981;42.636;23.376;2024-02-16T06:33:43;17.60;;;9.60;;
70233;SDS011;75981;42.636;23.376;2024-02-16T06:36:08;14.85;;;8.63;;
70233;SDS011;75981;42.636;23.376;2024-02-16T06:38:35;19.65;;;9.60;;
70233;SDS011;75981;42.636;23.376;2024-02-16T06:41:02;16.85;;;8.57;;
70233;SDS011;75981;42.636;23.376;2024-02-16T06:43:34;18.67;;;8.45;;
70233;SDS011;75981;42.636;23.376;2024-02-16T06:46:12;18.30;;;8.18;;
70233;SDS011;75981;42.636;23.376;2024-02-16T06:48:37;18.98;;;8.38;;
70233;SDS011;75981;42.636;23.376;2024-02-16T06:51:03;18.73;;;8.43;;
70233;SDS011;75981;42.636;23.376;2024-02-16T06:53:28;15.63;;;7.78;;
70233;SDS011;75981;42.636;23.376;2024-02-16T06:55:54;13.48;;;7.40;;
70233;SDS011;75981;42.636;23.376;2024-02-16T06:58:19;12.82;;;6.68;;
70233;SDS011;75981;42.636;23.376;2024-02-16T07:00:45;13.40;;;6.00;;
70233;SDS011;75981;42.636;23.376;2024-02-16T07:03:10;14.13;;;6.97;;
70233;SDS011;75981;42.636;23.376;2024-02-16T07:05:36;15.93;;;6.93;;
70233;SDS011;75981;42.636;23.376;2024-02-16T07:08:01;13.45;;;6.70;;
70233;SDS011;75981;42.636;23.376;2024-02-16T07:10:27;15.57;;;6.68;;
70233;SDS011;75981;42.636;23.376;2024-02-16T07:12:52;13.38;;;7.88;;
70233;SDS011;75981;42.636;23.376;2024-02-16T07:15:18;15.73;;;7.18;;
70233;SDS011;75981;42.636;23.376;2024-02-16T07:17:43;13.65;;;7.15;;
70233;SDS011;75981;42.636;23.376;2024-02-16T07:20:09;14.43;;;6.88;;
70233;SDS011;75981;42.636;23.376;2024-02-16T07:22:35;22.27;;;7.68;;
70233;SDS011;75981;42.636;23.376;2024-02-16T07:25:01;13.63;;;7.70;;
70233;SDS011;75981;42.636;23.376;2024-02-16T07:27:26;18.40;;;7.75;;
70233;SDS011;75981;42.636;23.376;2024-02-16T07:29:52;15.35;;;7.43;;
70233;SDS011;75981;42.636;23.376;2024-02-16T07:32:17;16.17;;;8.63;;
70233;SDS011;75981;42.636;23.376;2024-02-16T07:34:46;17.30;;;7.80;;
70233;SDS011;75981;42.636;23.376;2024-02-16T07:37:13;18.70;;;8.43;;
70233;SDS011;75981;42.636;23.376;2024-02-16T07:39:39;15.82;;;8.35;;
70233;SDS011;75981;42.636;23.376;2024-02-16T07:42:05;18.65;;;7.78;;
70233;SDS011;75981;42.636;23.376;2024-02-16T07:44:34;17.55;;;8.85;;
70233;SDS011;75981;42.636;23.376;2024-02-16T07:47:02;16.60;;;8.90;;
70233;SDS011;75981;42.636;23.376;2024-02-16T07:49:28;20.17;;;8.45;;
70233;SDS011;75981;42.636;23.376;2024-02-16T07:51:54;17.02;;;8.75;;
70233;SDS011;75981;42.636;23.376;2024-02-16T07:54:20;17.77;;;8.15;;
70233;SDS011;75981;42.636;23.376;2024-02-16T07:56:48;13.45;;;6.93;;
70233;SDS011;75981;42.636;23.376;2024-02-16T07:59:14;15.02;;;6.30;;
70233;SDS011;75981;42.636;23.376;2024-02-16T08:01:40;18.23;;;7.65;;
70233;SDS011;75981;42.636;23.376;2024-02-16T08:04:05;16.55;;;7.32;;
70233;SDS011;75981;42.636;23.376;2024-02-16T08:06:31;16.42;;;8.52;;
70233;SDS011;75981;42.636;23.376;2024-02-16T08:09:17;16.33;;;7.55;;
70233;SDS011;75981;42.636;23.376;2024-02-16T08:11:43;12.70;;;7.13;;
70233;SDS011;75981;42.636;23.376;2024-02-16T08:14:09;13.68;;;6.55;;
70233;SDS011;75981;42.636;23.376;2024-02-16T08:16:34;14.07;;;7.25;;
70233;SDS011;75981;42.636;23.376;2024-02-16T08:19:00;15.65;;;7.45;;
70233;SDS011;75981;42.636;23.376;2024-02-16T08:21:25;16.45;;;8.25;;
70233;SDS011;75981;42.636;23.376;2024-02-16T08:23:58;16.02;;;7.82;;
70233;SDS011;75981;42.636;23.376;2024-02-16T08:26:24;14.27;;;7.97;;
70233;SDS011;75981;42.636;23.376;2024-02-16T08:28:49;16.88;;;7.88;;
70233;SDS011;75981;42.636;23.376;2024-02-16T08:31:15;16.35;;;7.93;;
70233;SDS011;75981;42.636;23.376;2024-02-16T08:33:43;14.70;;;8.45;;
70233;SDS011;75981;42.636;23.376;2024-02-16T08:36:09;20.98;;;8.75;;
70233;SDS011;75981;42.636;23.376;2024-02-16T08:38:36;17.50;;;8.73;;
70233;SDS011;75981;42.636;23.376;2024-02-16T08:41:02;20.25;;;9.23;;
70233;SDS011;75981;42.636;23.376;2024-02-16T08:43:28;17.75;;;9.23;;
70233;SDS011;75981;42.636;23.376;2024-02-16T08:45:54;17.60;;;8.20;;
70233;SDS011;75981;42.636;23.376;2024-02-16T08:48:19;15.95;;;8.05;;
70233;SDS011;75981;42.636;23.376;2024-02-16T08:50:45;29.05;;;9.00;;
70233;SDS011;75981;42.636;23.376;2024-02-16T08:53:10;20.20;;;10.13;;
70233;SDS011;75981;42.636;23.376;2024-02-16T08:55:36;19.08;;;8.52;;
70233;SDS011;75981;42.636;23.376;2024-02-16T08:58:01;19.17;;;8.43;;
70233;SDS011;75981;42.636;23.376;2024-02-16T09:00:27;18.05;;;8.70;;
70233;SDS011;75981;42.636;23.376;2024-02-16T09:02:53;19.38;;;8.35;;
70233;SDS011;75981;42.636;23.376;2024-02-16T09:05:20;16.88;;;8.52;;
70233;SDS011;75981;42.636;23.376;2024-02-16T09:07:45;21.60;;;9.27;;
70233;SDS011;75981;42.636;23.376;2024-02-16T09:10:14;21.60;;;11.23;;
70233;SDS011;75981;42.636;23.376;2024-02-16T09:12:39;23.60;;;11.50;;
70233;SDS011;75981;42.636;23.376;2024-02-16T09:15:05;20.30;;;11.20;;
70233;SDS011;75981;42.636;23.376;2024-02-16T09:17:31;18.15;;;9.55;;
70233;SDS011;75981;42.636;23.376;2024-02-16T09:19:57;22.92;;;10.73;;
70233;SDS011;75981;42.636;23.376;2024-02-16T09:22:23;22.88;;;11.68;;
70233;SDS011;75981;42.636;23.376;2024-02-16T09:24:48;21.10;;;9.55;;
70233;SDS011;75981;42.636;23.376;2024-02-16T09:27:13;21.40;;;9.95;;
70233;SDS011;75981;42.636;23.376;2024-02-16T09:29:39;24.35;;;9.13;;
70233;SDS011;75981;42.636;23.376;2024-02-16T09:32:05;16.95;;;9.02;;
70233;SDS011;75981;42.636;23.376;2024-02-16T09:34:31;17.25;;;8.45;;
70233;SDS011;75981;42.636;23.376;2024-02-16T09:36:56;15.73;;;7.85;;
70233;SDS011;75981;42.636;23.376;2024-02-16T09:39:22;16.45;;;8.10;;
70233;SDS011;75981;42.636;23.376;2024-02-16T09:41:50;16.05;;;8.00;;
70233;SDS011;75981;42.636;23.376;2024-02-16T09:44:17;16.48;;;9.00;;
70233;SDS011;75981;42.636;23.376;2024-02-16T09:46:43;17.23;;;8.60;;
70233;SDS011;75981;42.636;23.376;2024-02-16T09:49:08;17.55;;;9.52;;
70233;SDS011;75981;42.636;23.376;2024-02-16T09:51:38;17.58;;;9.52;;
70233;SDS011;75981;42.636;23.376;2024-02-16T09:54:04;16.45;;;9.52;;
70233;SDS011;75981;42.636;23.376;2024-02-16T09:56:29;16.58;;;7.90;;
70233;SDS011;75981;42.636;23.376;2024-02-16T09:58:55;14.95;;;6.80;;
70233;SDS011;75981;42.636;23.376;2024-02-16T10:01:21;14.70;;;5.63;;
70233;SDS011;75981;42.636;23.376;2024-02-16T10:03:48;11.48;;;6.10;;
70233;SDS011;75981;42.636;23.376;2024-02-16T10:06:14;11.98;;;6.70;;
70233;SDS011;75981;42.636;23.376;2024-02-16T10:08:52;12.57;;;6.03;;
70233;SDS011;75981;42.636;23.376;2024-02-16T10:11:24;14.20;;;6.20;;
70233;SDS011;75981;42.636;23.376;2024-02-16T10:16:20;16.30;;;5.28;;
70233;SDS011;75981;42.636;23.376;2024-02-16T10:18:45;9.68;;;4.90;;
70233;SDS011;75981;42.636;23.376;2024-02-16T10:21:10;9.57;;;4.53;;
70233;SDS011;75981;42.636;23.376;2024-02-16T10:23:36;9.80;;;4.43;;
70233;SDS011;75981;42.636;23.376;2024-02-16T10:26:01;12.98;;;5.22;;
70233;SDS011;75981;42.636;23.376;2024-02-16T10:28:28;9.30;;;4.50;;
70233;SDS011;75981;42.636;23.376;2024-02-16T10:30:59;14.25;;;5.03;;
70233;SDS011;75981;42.636;23.376;2024-02-16T10:33:29;8.27;;;3.97;;
70233;SDS011;75981;42.636;23.376;2024-02-16T10:35:57;8.43;;;4.10;;
70233;SDS011;75981;42.636;23.376;2024-02-16T10:38:23;11.10;;;4.65;;
70233;SDS011;75981;42.636;23.376;2024-02-16T10:40:50;11.63;;;5.15;;
70233;SDS011;75981;42.636;23.376;2024-02-16T10:43:17;10.35;;;4.85;;
70233;SDS011;75981;42.636;23.376;2024-02-16T10:45:43;9.52;;;4.72;;
70233;SDS011;75981;42.636;23.376;2024-02-16T10:48:10;11.85;;;5.60;;
70233;SDS011;75981;42.636;23.376;2024-02-16T10:50:36;10.38;;;5.38;;
70233;SDS011;75981;42.636;23.376;2024-02-16T10:53:04;11.07;;;5.35;;
70233;SDS011;75981;42.636;23.376;2024-02-16T10:55:39;10.15;;;5.40;;
70233;SDS011;75981;42.636;23.376;2024-02-16T10:58:06;10.55;;;5.15;;
70233;SDS011;75981;42.636;23.376;2024-02-16T11:00:33;10.30;;;4.95;;
70233;SDS011;75981;42.636;23.376;2024-02-16T11:03:01;11.82;;;5.30;;
70233;SDS011;75981;42.636;23.376;2024-02-16T11:05:40;15.00;;;6.05;;
70233;SDS011;75981;42.636;23.376;2024-02-16T11:08:13;11.32;;;5.30;;
70233;SDS011;75981;42.636;23.376;2024-02-16T11:10:39;12.02;;;4.85;;
70233;SDS011;75981;42.636;23.376;2024-02-16T11:13:05;12.55;;;5.05;;
70233;SDS011;75981;42.636;23.376;2024-02-16T11:15:31;13.20;;;4.97;;
70233;SDS011;75981;42.636;23.376;2024-02-16T11:17:58;18.33;;;5.90;;
70233;SDS011;75981;42.636;23.376;2024-02-16T11:20:25;12.45;;;4.35;;
70233;SDS011;75981;42.636;23.376;2024-02-16T11:22:51;9.68;;;5.10;;
70233;SDS011;75981;42.636;23.376;2024-02-16T11:25:18;15.07;;;4.95;;
70233;SDS011;75981;42.636;23.376;2024-02-16T11:27:45;11.90;;;4.40;;
70233;SDS011;75981;42.636;23.376;2024-02-16T11:30:12;9.63;;;4.55;;
70233;SDS011;75981;42.636;23.376;2024-02-16T11:32:38;9.68;;;4.47;;
70233;SDS011;75981;42.636;23.376;2024-02-16T11:35:08;9.65;;;4.25;;
70233;SDS011;75981;42.636;23.376;2024-02-16T11:37:34;8.77;;;4.43;;
70233;SDS011;75981;42.636;23.376;2024-02-16T11:39:59;14.25;;;4.43;;
70233;SDS011;75981;42.636;23.376;2024-02-16T11:42:25;10.95;;;4.43;;
70233;SDS011;75981;42.636;23.376;2024-02-16T11:44:54;9.98;;;4.38;;
70233;SDS011;75981;42.636;23.376;2024-02-16T11:47:26;12.45;;;4.45;;
70233;SDS011;75981;42.636;23.376;2024-02-16T11:50:04;17.30;;;5.28;;
70233;SDS011;75981;42.636;23.376;2024-02-16T11:52:31;9.27;;;5.05;;
70233;SDS011;75981;42.636;23.376;2024-02-16T11:54:57;9.07;;;4.07;;
70233;SDS011;75981;42.636;23.376;2024-02-16T11:57:26;9.60;;;4.03;;
70233;SDS011;75981;42.636;23.376;2024-02-16T11:59:52;8.90;;;4.30;;
70233;SDS011;75981;42.636;23.376;2024-02-16T12:02:19;11.40;;;5.20;;
70233;SDS011;75981;42.636;23.376;2024-02-16T12:04:45;8.73;;;4.13;;
70233;SDS011;75981;42.636;23.376;2024-02-16T12:07:12;11.00;;;4.97;;
70233;SDS011;75981;42.636;23.376;2024-02-16T12:09:39;14.07;;;5.03;;
70233;SDS011;75981;42.636;23.376;2024-02-16T12:12:05;9.30;;;4.45;;
70233;SDS011;75981;42.636;23.376;2024-02-16T12:14:31;11.02;;;4.30;;
70233;SDS011;75981;42.636;23.376;2024-02-16T12:16:57;9.02;;;4.25;;
70233;SDS011;75981;42.636;23.376;2024-02-16T12:19:23;9.70;;;4.10;;
70233;SDS011;75981;42.636;23.376;2024-02-16T12:21:49;10.48;;;4.38;;
70233;SDS011;75981;42.636;23.376;2024-02-16T12:24:19;11.35;;;4.50;;
70233;SDS011;75981;42.636;23.376;2024-02-16T12:26:45;9.60;;;4.18;;
70233;SDS011;75981;42.636;23.376;2024-02-16T12:29:11;9.07;;;4.47;;
70233;SDS011;75981;42.636;23.376;2024-02-16T12:31:41;8.73;;;4.18;;
70233;SDS011;75981;42.636;23.376;2024-02-16T12:34:08;10.27;;;4.35;;
70233;SDS011;75981;42.636;23.376;2024-02-16T12:36:34;8.07;;;4.50;;
70233;SDS011;75981;42.636;23.376;2024-02-16T12:39:00;11.30;;;4.97;;
70233;SDS011;75981;42.636;23.376;2024-02-16T12:41:25;10.25;;;5.20;;
70233;SDS011;75981;42.636;23.376;2024-02-16T12:43:51;11.70;;;5.32;;
70233;SDS011;75981;42.636;23.376;2024-02-16T12:46:16;9.93;;;5.38;;
70233;SDS011;75981;42.636;23.376;2024-02-16T12:48:44;11.88;;;5.00;;
70233;SDS011;75981;42.636;23.376;2024-02-16T12:51:09;12.55;;;5.00;;
70233;SDS011;75981;42.636;23.376;2024-02-16T12:53:36;15.20;;;5.45;;
70233;SDS011;75981;42.636;23.376;2024-02-16T12:58:34;13.93;;;5.28;;
70233;SDS011;75981;42.636;23.376;2024-02-16T13:01:03;9.85;;;5.25;;
70233;SDS011;75981;42.636;23.376;2024-02-16T13:03:32;10.53;;;5.07;;
70233;SDS011;75981;42.636;23.376;2024-02-16T13:06:02;10.02;;;5.25;;
70233;SDS011;75981;42.636;23.376;2024-02-16T13:08:28;9.90;;;5.10;;
70233;SDS011;75981;42.636;23.376;2024-02-16T13:10:54;10.52;;;5.25;;
70233;SDS011;75981;42.636;23.376;2024-02-16T13:13:20;11.07;;;5.53;;
70233;SDS011;75981;42.636;23.376;2024-02-16T13:15:46;10.73;;;5.32;;
70233;SDS011;75981;42.636;23.376;2024-02-16T13:18:14;13.50;;;5.47;;
70233;SDS011;75981;42.636;23.376;2024-02-16T13:20:41;11.70;;;5.00;;
70233;SDS011;75981;42.636;23.376;2024-02-16T13:23:07;9.75;;;5.25;;
70233;SDS011;75981;42.636;23.376;2024-02-16T13:25:32;13.43;;;5.22;;
70233;SDS011;75981;42.636;23.376;2024-02-16T13:27:58;9.65;;;4.72;;
70233;SDS011;75981;42.636;23.376;2024-02-16T13:30:24;11.52;;;5.63;;
70233;SDS011;75981;42.636;23.376;2024-02-16T13:32:50;11.18;;;4.90;;
70233;SDS011;75981;42.636;23.376;2024-02-16T13:35:15;9.90;;;4.97;;
70233;SDS011;75981;42.636;23.376;2024-02-16T13:37:41;9.88;;;4.88;;
70233;SDS011;75981;42.636;23.376;2024-02-16T13:40:07;13.07;;;5.13;;
70233;SDS011;75981;42.636;23.376;2024-02-16T13:42:37;11.57;;;5.28;;
70233;SDS011;75981;42.636;23.376;2024-02-16T13:45:06;12.48;;;5.57;;
70233;SDS011;75981;42.636;23.376;2024-02-16T13:47:36;11.43;;;6.43;;
70233;SDS011;75981;42.636;23.376;2024-02-16T13:50:01;10.35;;;5.63;;
70233;SDS011;75981;42.636;23.376;2024-02-16T13:52:27;11.95;;;5.72;;
70233;SDS011;75981;42.636;23.376;2024-02-16T13:54:52;13.13;;;5.75;;
70233;SDS011;75981;42.636;23.376;2024-02-16T13:57:19;16.92;;;6.07;;
70233;SDS011;75981;42.636;23.376;2024-02-16T13:59:45;13.30;;;6.20;;
70233;SDS011;75981;42.636;23.376;2024-02-16T14:02:11;15.40;;;6.07;;
70233;SDS011;75981;42.636;23.376;2024-02-16T14:04:37;10.30;;;5.55;;
70233;SDS011;75981;42.636;23.376;2024-02-16T14:07:03;10.73;;;6.80;;
70233;SDS011;75981;42.636;23.376;2024-02-16T14:09:29;15.10;;;5.60;;
70233;SDS011;75981;42.636;23.376;2024-02-16T14:11:54;13.25;;;5.88;;
70233;SDS011;75981;42.636;23.376;2024-02-16T14:14:21;13.43;;;6.35;;
70233;SDS011;75981;42.636;23.376;2024-02-16T14:16:47;12.38;;;6.13;;
70233;SDS011;75981;42.636;23.376;2024-02-16T14:19:13;12.65;;;5.53;;
70233;SDS011;75981;42.636;23.376;2024-02-16T14:21:38;11.70;;;5.22;;
70233;SDS011;75981;42.636;23.376;2024-02-16T14:24:04;13.18;;;5.88;;